Meramec River (Missouri), Eureka (07019000)

StateMissouriCurrentPotential (1480 cfs)
RiverMeramec RiverFlood - The river is flooding. Obstacles can be treacherous or deadly. The river should be avoided at this stage for casual trips and definitely for the inexperienced. Trips should be attempted only with protective gear and equipment.Flood(none)
Updated2019-10-14 3:30 (21 minutes ago)High - The river is high and potentially dangerous, especially for the young and / or inexperienced. Normal stream obstacles are sometimes difficult to navigate. Extended distances can be attempted, but canoe travel may not be advisable.High(none)
Discharge1480 cfs (median: 679 cfs)Good - Conditions are ideal for a canoe or kayak. Boats typically will drag on fewer than one-quarter of riffles, if at all, and portages are unnecessary or rare. Normal float lengths can be attempted without a problem.Good(none)
Height3.87 feetLow - River is low but can still be floated. Some riffles are okay but most come with significant dragging and might need a portage. Float lengths should be reduced to accommodate low flow, dragging, and portages.Low(none)
TrendSteady (rising over 24 hours)Poor - River is too low to float comfortably. Most or all riffles will drag or must be portaged and some obstacles (such as slick shelf rock) cause undue problems. Avoid the river at this stage for casual paddling trips.Poor(none)
USGSExternal icon USGS Site for Eureka (07019000)LocationExternal icon Google Maps

Trending Data

Plot Image
ObservationHeightDischargeMaximum
Discharge
Minimum
Discharge
Mean
Discharge
P05P10P20P25P50
(Median)
P75P80P90P95
2019-10-14 03:30 3.87 1480 20700 (1950) 205 (1957) 1320 333 436 499 516 679 1210 1300 2570 4680
2019-10-14 03:00 3.87 1480 20700 (1950) 205 (1957) 1320 333 436 499 516 679 1210 1300 2570 4680
2019-10-14 02:30 3.88 1490 20700 (1950) 205 (1957) 1320 333 436 499 516 679 1210 1300 2570 4680
2019-10-14 02:00 3.88 1490 20700 (1950) 205 (1957) 1320 333 436 499 516 679 1210 1300 2570 4680
2019-10-14 01:30 3.89 1510 20700 (1950) 205 (1957) 1320 333 436 499 516 679 1210 1300 2570 4680
2019-10-14 01:00 3.89 1510 20700 (1950) 205 (1957) 1320 333 436 499 516 679 1210 1300 2570 4680
2019-10-14 00:30 3.89 1510 20700 (1950) 205 (1957) 1320 333 436 499 516 679 1210 1300 2570 4680
2019-10-14 00:00 3.89 1510 20700 (1950) 205 (1957) 1320 333 436 499 516 679 1210 1300 2570 4680
2019-10-13 23:30 3.89 1510 20500 (1950) 200 (1957) 1350 366 441 485 518 671 1130 1300 2300 3620
2019-10-13 23:00 3.89 1510 20500 (1950) 200 (1957) 1350 366 441 485 518 671 1130 1300 2300 3620
2019-10-13 22:30 3.90 1520 20500 (1950) 200 (1957) 1350 366 441 485 518 671 1130 1300 2300 3620
2019-10-13 22:00 3.89 1510 20500 (1950) 200 (1957) 1350 366 441 485 518 671 1130 1300 2300 3620
2019-10-13 21:30 3.89 1510 20500 (1950) 200 (1957) 1350 366 441 485 518 671 1130 1300 2300 3620
2019-10-13 21:00 3.89 1510 20500 (1950) 200 (1957) 1350 366 441 485 518 671 1130 1300 2300 3620
2019-10-13 20:30 3.89 1510 20500 (1950) 200 (1957) 1350 366 441 485 518 671 1130 1300 2300 3620
2019-10-13 20:00 3.88 1490 20500 (1950) 200 (1957) 1350 366 441 485 518 671 1130 1300 2300 3620
2019-10-13 19:30 3.88 1490 20500 (1950) 200 (1957) 1350 366 441 485 518 671 1130 1300 2300 3620
2019-10-13 19:00 3.87 1480 20500 (1950) 200 (1957) 1350 366 441 485 518 671 1130 1300 2300 3620
2019-10-13 18:30 3.87 1480 20500 (1950) 200 (1957) 1350 366 441 485 518 671 1130 1300 2300 3620
2019-10-13 18:00 3.86 1470 20500 (1950) 200 (1957) 1350 366 441 485 518 671 1130 1300 2300 3620
2019-10-13 17:30 3.87 1480 20500 (1950) 200 (1957) 1350 366 441 485 518 671 1130 1300 2300 3620
2019-10-13 17:00 3.86 1470 20500 (1950) 200 (1957) 1350 366 441 485 518 671 1130 1300 2300 3620
2019-10-13 16:30 3.85 1450 20500 (1950) 200 (1957) 1350 366 441 485 518 671 1130 1300 2300 3620
2019-10-13 16:00 3.85 1450 20500 (1950) 200 (1957) 1350 366 441 485 518 671 1130 1300 2300 3620
2019-10-13 15:30 3.84 1440 20500 (1950) 200 (1957) 1350 366 441 485 518 671 1130 1300 2300 3620
2019-10-13 15:00 3.83 1430 20500 (1950) 200 (1957) 1350 366 441 485 518 671 1130 1300 2300 3620
2019-10-13 14:30 3.83 1430 20500 (1950) 200 (1957) 1350 366 441 485 518 671 1130 1300 2300 3620
2019-10-13 14:00 3.82 1410 20500 (1950) 200 (1957) 1350 366 441 485 518 671 1130 1300 2300 3620
2019-10-13 13:30 3.81 1400 20500 (1950) 200 (1957) 1350 366 441 485 518 671 1130 1300 2300 3620
2019-10-13 13:00 3.80 1390 20500 (1950) 200 (1957) 1350 366 441 485 518 671 1130 1300 2300 3620
2019-10-13 12:30 3.78 1360 20500 (1950) 200 (1957) 1350 366 441 485 518 671 1130 1300 2300 3620
2019-10-13 12:00 3.77 1350 20500 (1950) 200 (1957) 1350 366 441 485 518 671 1130 1300 2300 3620
2019-10-13 11:30 3.75 1320 20500 (1950) 200 (1957) 1350 366 441 485 518 671 1130 1300 2300 3620
2019-10-13 11:00 3.73 1300 20500 (1950) 200 (1957) 1350 366 441 485 518 671 1130 1300 2300 3620
2019-10-13 10:30 3.71 1270 20500 (1950) 200 (1957) 1350 366 441 485 518 671 1130 1300 2300 3620
2019-10-13 10:00 3.68 1240 20500 (1950) 200 (1957) 1350 366 441 485 518 671 1130 1300 2300 3620
2019-10-13 09:30 3.65 1200 20500 (1950) 200 (1957) 1350 366 441 485 518 671 1130 1300 2300 3620
2019-10-13 09:00 3.61 1150 20500 (1950) 200 (1957) 1350 366 441 485 518 671 1130 1300 2300 3620
2019-10-13 08:30 3.58 1110 20500 (1950) 200 (1957) 1350 366 441 485 518 671 1130 1300 2300 3620
2019-10-13 08:00 3.54 1070 20500 (1950) 200 (1957) 1350 366 441 485 518 671 1130 1300 2300 3620
2019-10-13 07:30 3.51 1030 20500 (1950) 200 (1957) 1350 366 441 485 518 671 1130 1300 2300 3620
2019-10-13 07:00 3.48 995 20500 (1950) 200 (1957) 1350 366 441 485 518 671 1130 1300 2300 3620
2019-10-13 06:30 3.46 971 20500 (1950) 200 (1957) 1350 366 441 485 518 671 1130 1300 2300 3620
2019-10-13 06:00 3.44 948 20500 (1950) 200 (1957) 1350 366 441 485 518 671 1130 1300 2300 3620
2019-10-13 05:30 3.43 937 20500 (1950) 200 (1957) 1350 366 441 485 518 671 1130 1300 2300 3620
2019-10-13 05:00 3.42 926 20500 (1950) 200 (1957) 1350 366 441 485 518 671 1130 1300 2300 3620
2019-10-13 04:30 3.42 926 20500 (1950) 200 (1957) 1350 366 441 485 518 671 1130 1300 2300 3620
2019-10-13 04:00 3.41 914 20500 (1950) 200 (1957) 1350 366 441 485 518 671 1130 1300 2300 3620
2019-10-13 03:30 3.41 914 20500 (1950) 200 (1957) 1350 366 441 485 518 671 1130 1300 2300 3620
2019-10-13 03:00 3.41 914 20500 (1950) 200 (1957) 1350 366 441 485 518 671 1130 1300 2300 3620
2019-10-13 02:30 3.41 914 20500 (1950) 200 (1957) 1350 366 441 485 518 671 1130 1300 2300 3620
2019-10-13 02:00 3.41 914 20500 (1950) 200 (1957) 1350 366 441 485 518 671 1130 1300 2300 3620
2019-10-13 01:30 3.41 914 20500 (1950) 200 (1957) 1350 366 441 485 518 671 1130 1300 2300 3620
2019-10-13 01:00 3.41 914 20500 (1950) 200 (1957) 1350 366 441 485 518 671 1130 1300 2300 3620
2019-10-13 00:30 3.41 914 20500 (1950) 200 (1957) 1350 366 441 485 518 671 1130 1300 2300 3620
2019-10-13 00:00 3.41 914 20500 (1950) 200 (1957) 1350 366 441 485 518 671 1130 1300 2300 3620
2019-10-12 23:30 3.41 914 25100 (2010) 205 (1957) 1440 339 425 482 524 691 1180 1360 2340 4570
2019-10-12 23:00 3.41 914 25100 (2010) 205 (1957) 1440 339 425 482 524 691 1180 1360 2340 4570
2019-10-12 22:30 3.40 903 25100 (2010) 205 (1957) 1440 339 425 482 524 691 1180 1360 2340 4570
2019-10-12 22:00 3.40 903 25100 (2010) 205 (1957) 1440 339 425 482 524 691 1180 1360 2340 4570
2019-10-12 21:30 3.40 903 25100 (2010) 205 (1957) 1440 339 425 482 524 691 1180 1360 2340 4570
2019-10-12 21:00 3.41 914 25100 (2010) 205 (1957) 1440 339 425 482 524 691 1180 1360 2340 4570
2019-10-12 20:30 3.41 914 25100 (2010) 205 (1957) 1440 339 425 482 524 691 1180 1360 2340 4570
2019-10-12 20:00 3.40 903 25100 (2010) 205 (1957) 1440 339 425 482 524 691 1180 1360 2340 4570
2019-10-12 19:30 3.40 903 25100 (2010) 205 (1957) 1440 339 425 482 524 691 1180 1360 2340 4570
2019-10-12 19:00 3.40 903 25100 (2010) 205 (1957) 1440 339 425 482 524 691 1180 1360 2340 4570
2019-10-12 18:30 3.40 903 25100 (2010) 205 (1957) 1440 339 425 482 524 691 1180 1360 2340 4570
2019-10-12 18:00 3.40 903 25100 (2010) 205 (1957) 1440 339 425 482 524 691 1180 1360 2340 4570
2019-10-12 17:30 3.41 914 25100 (2010) 205 (1957) 1440 339 425 482 524 691 1180 1360 2340 4570
2019-10-12 17:00 3.41 914 25100 (2010) 205 (1957) 1440 339 425 482 524 691 1180 1360 2340 4570
2019-10-12 16:30 3.41 914 25100 (2010) 205 (1957) 1440 339 425 482 524 691 1180 1360 2340 4570
2019-10-12 16:00 3.42 926 25100 (2010) 205 (1957) 1440 339 425 482 524 691 1180 1360 2340 4570
2019-10-12 15:30 3.41 914 25100 (2010) 205 (1957) 1440 339 425 482 524 691 1180 1360 2340 4570
2019-10-12 15:00 3.42 926 25100 (2010) 205 (1957) 1440 339 425 482 524 691 1180 1360 2340 4570
2019-10-12 14:30 3.41 914 25100 (2010) 205 (1957) 1440 339 425 482 524 691 1180 1360 2340 4570
2019-10-12 14:00 3.41 914 25100 (2010) 205 (1957) 1440 339 425 482 524 691 1180 1360 2340 4570
2019-10-12 13:30 3.42 926 25100 (2010) 205 (1957) 1440 339 425 482 524 691 1180 1360 2340 4570
2019-10-12 13:00 3.42 926 25100 (2010) 205 (1957) 1440 339 425 482 524 691 1180 1360 2340 4570
2019-10-12 12:30 3.42 926 25100 (2010) 205 (1957) 1440 339 425 482 524 691 1180 1360 2340 4570
2019-10-12 12:00 3.42 926 25100 (2010) 205 (1957) 1440 339 425 482 524 691 1180 1360 2340 4570
2019-10-12 11:30 3.43 937 25100 (2010) 205 (1957) 1440 339 425 482 524 691 1180 1360 2340 4570
2019-10-12 11:00 3.43 937 25100 (2010) 205 (1957) 1440 339 425 482 524 691 1180 1360 2340 4570
2019-10-12 10:30 3.43 937 25100 (2010) 205 (1957) 1440 339 425 482 524 691 1180 1360 2340 4570
2019-10-12 10:00 3.43 937 25100 (2010) 205 (1957) 1440 339 425 482 524 691 1180 1360 2340 4570
2019-10-12 09:30 3.42 926 25100 (2010) 205 (1957) 1440 339 425 482 524 691 1180 1360 2340 4570
2019-10-12 09:00 3.43 937 25100 (2010) 205 (1957) 1440 339 425 482 524 691 1180 1360 2340 4570
2019-10-12 08:30 3.43 937 25100 (2010) 205 (1957) 1440 339 425 482 524 691 1180 1360 2340 4570
2019-10-12 08:00 3.43 937 25100 (2010) 205 (1957) 1440 339 425 482 524 691 1180 1360 2340 4570
2019-10-12 07:30 3.43 937 25100 (2010) 205 (1957) 1440 339 425 482 524 691 1180 1360 2340 4570
2019-10-12 07:00 3.43 937 25100 (2010) 205 (1957) 1440 339 425 482 524 691 1180 1360 2340 4570
2019-10-12 06:30 3.44 948 25100 (2010) 205 (1957) 1440 339 425 482 524 691 1180 1360 2340 4570
2019-10-12 06:00 3.44 948 25100 (2010) 205 (1957) 1440 339 425 482 524 691 1180 1360 2340 4570
2019-10-12 05:30 3.43 937 25100 (2010) 205 (1957) 1440 339 425 482 524 691 1180 1360 2340 4570
2019-10-12 05:00 3.44 948 25100 (2010) 205 (1957) 1440 339 425 482 524 691 1180 1360 2340 4570
2019-10-12 04:30 3.44 948 25100 (2010) 205 (1957) 1440 339 425 482 524 691 1180 1360 2340 4570
2019-10-12 04:00 3.44 948 25100 (2010) 205 (1957) 1440 339 425 482 524 691 1180 1360 2340 4570
2019-10-12 03:30 3.44 948 25100 (2010) 205 (1957) 1440 339 425 482 524 691 1180 1360 2340 4570
2019-10-12 03:00 3.44 948 25100 (2010) 205 (1957) 1440 339 425 482 524 691 1180 1360 2340 4570
2019-10-12 02:30 3.45 960 25100 (2010) 205 (1957) 1440 339 425 482 524 691 1180 1360 2340 4570
2019-10-12 02:00 3.45 960 25100 (2010) 205 (1957) 1440 339 425 482 524 691 1180 1360 2340 4570
2019-10-12 01:30 3.45 960 25100 (2010) 205 (1957) 1440 339 425 482 524 691 1180 1360 2340 4570
2019-10-12 01:00 3.44 948 25100 (2010) 205 (1957) 1440 339 425 482 524 691 1180 1360 2340 4570
2019-10-12 00:30 3.45 960 25100 (2010) 205 (1957) 1440 339 425 482 524 691 1180 1360 2340 4570
2019-10-12 00:00 3.44 948 25100 (2010) 205 (1957) 1440 339 425 482 524 691 1180 1360 2340 4570
2019-10-11 23:30 3.44 948 22100 (2010) 210 (1957) 1340 347 421 484 522 673 1180 1340 2220 5200
2019-10-11 23:00 3.44 948 22100 (2010) 210 (1957) 1340 347 421 484 522 673 1180 1340 2220 5200
2019-10-11 22:30 3.44 948 22100 (2010) 210 (1957) 1340 347 421 484 522 673 1180 1340 2220 5200
2019-10-11 22:00 3.44 948 22100 (2010) 210 (1957) 1340 347 421 484 522 673 1180 1340 2220 5200
2019-10-11 21:30 3.44 948 22100 (2010) 210 (1957) 1340 347 421 484 522 673 1180 1340 2220 5200
2019-10-11 21:00 3.44 948 22100 (2010) 210 (1957) 1340 347 421 484 522 673 1180 1340 2220 5200
2019-10-11 20:30 3.44 948 22100 (2010) 210 (1957) 1340 347 421 484 522 673 1180 1340 2220 5200
2019-10-11 20:00 3.44 948 22100 (2010) 210 (1957) 1340 347 421 484 522 673 1180 1340 2220 5200
2019-10-11 19:30 3.43 937 22100 (2010) 210 (1957) 1340 347 421 484 522 673 1180 1340 2220 5200
2019-10-11 19:00 3.43 937 22100 (2010) 210 (1957) 1340 347 421 484 522 673 1180 1340 2220 5200
2019-10-11 18:30 3.43 937 22100 (2010) 210 (1957) 1340 347 421 484 522 673 1180 1340 2220 5200
2019-10-11 18:00 3.42 926 22100 (2010) 210 (1957) 1340 347 421 484 522 673 1180 1340 2220 5200
2019-10-11 17:30 3.42 926 22100 (2010) 210 (1957) 1340 347 421 484 522 673 1180 1340 2220 5200
2019-10-11 17:00 3.42 926 22100 (2010) 210 (1957) 1340 347 421 484 522 673 1180 1340 2220 5200
2019-10-11 16:30 3.42 926 22100 (2010) 210 (1957) 1340 347 421 484 522 673 1180 1340 2220 5200
2019-10-11 16:00 3.41 914 22100 (2010) 210 (1957) 1340 347 421 484 522 673 1180 1340 2220 5200
2019-10-11 15:30 3.41 914 22100 (2010) 210 (1957) 1340 347 421 484 522 673 1180 1340 2220 5200
2019-10-11 15:00 3.41 914 22100 (2010) 210 (1957) 1340 347 421 484 522 673 1180 1340 2220 5200
2019-10-11 14:30 3.41 914 22100 (2010) 210 (1957) 1340 347 421 484 522 673 1180 1340 2220 5200
2019-10-11 14:00 3.41 914 22100 (2010) 210 (1957) 1340 347 421 484 522 673 1180 1340 2220 5200
2019-10-11 13:30 3.41 914 22100 (2010) 210 (1957) 1340 347 421 484 522 673 1180 1340 2220 5200
2019-10-11 13:00 3.41 914 22100 (2010) 210 (1957) 1340 347 421 484 522 673 1180 1340 2220 5200
2019-10-11 12:30 3.41 914 22100 (2010) 210 (1957) 1340 347 421 484 522 673 1180 1340 2220 5200
2019-10-11 12:00 3.41 914 22100 (2010) 210 (1957) 1340 347 421 484 522 673 1180 1340 2220 5200
2019-10-11 11:30 3.41 914 22100 (2010) 210 (1957) 1340 347 421 484 522 673 1180 1340 2220 5200
2019-10-11 11:00 3.41 914 22100 (2010) 210 (1957) 1340 347 421 484 522 673 1180 1340 2220 5200
2019-10-11 10:30 3.41 914 22100 (2010) 210 (1957) 1340 347 421 484 522 673 1180 1340 2220 5200
2019-10-11 10:00 3.41 914 22100 (2010) 210 (1957) 1340 347 421 484 522 673 1180 1340 2220 5200
2019-10-11 09:30 3.41 914 22100 (2010) 210 (1957) 1340 347 421 484 522 673 1180 1340 2220 5200
2019-10-11 09:00 3.41 914 22100 (2010) 210 (1957) 1340 347 421 484 522 673 1180 1340 2220 5200
2019-10-11 08:30 3.41 914 22100 (2010) 210 (1957) 1340 347 421 484 522 673 1180 1340 2220 5200
2019-10-11 08:00 3.40 903 22100 (2010) 210 (1957) 1340 347 421 484 522 673 1180 1340 2220 5200
2019-10-11 07:30 3.40 903 22100 (2010) 210 (1957) 1340 347 421 484 522 673 1180 1340 2220 5200
2019-10-11 07:00 3.40 903 22100 (2010) 210 (1957) 1340 347 421 484 522 673 1180 1340 2220 5200
2019-10-11 06:30 3.40 903 22100 (2010) 210 (1957) 1340 347 421 484 522 673 1180 1340 2220 5200
2019-10-11 06:00 3.40 903 22100 (2010) 210 (1957) 1340 347 421 484 522 673 1180 1340 2220 5200
2019-10-11 05:30 3.40 903 22100 (2010) 210 (1957) 1340 347 421 484 522 673 1180 1340 2220 5200
2019-10-11 05:00 3.40 903 22100 (2010) 210 (1957) 1340 347 421 484 522 673 1180 1340 2220 5200
2019-10-11 04:30 3.39 892 22100 (2010) 210 (1957) 1340 347 421 484 522 673 1180 1340 2220 5200
2019-10-11 04:00 3.38 881 22100 (2010) 210 (1957) 1340 347 421 484 522 673 1180 1340 2220 5200
2019-10-11 03:30 3.37 870 22100 (2010) 210 (1957) 1340 347 421 484 522 673 1180 1340 2220 5200
2019-10-11 03:00 3.36 858 22100 (2010) 210 (1957) 1340 347 421 484 522 673 1180 1340 2220 5200
2019-10-11 02:30 3.36 858 22100 (2010) 210 (1957) 1340 347 421 484 522 673 1180 1340 2220 5200
2019-10-11 02:00 3.36 858 22100 (2010) 210 (1957) 1340 347 421 484 522 673 1180 1340 2220 5200
2019-10-11 01:30 3.35 847 22100 (2010) 210 (1957) 1340 347 421 484 522 673 1180 1340 2220 5200
2019-10-11 01:00 3.34 836 22100 (2010) 210 (1957) 1340 347 421 484 522 673 1180 1340 2220 5200
2019-10-11 00:30 3.35 847 22100 (2010) 210 (1957) 1340 347 421 484 522 673 1180 1340 2220 5200
2019-10-11 00:00 3.34 836 22100 (2010) 210 (1957) 1340 347 421 484 522 673 1180 1340 2220 5200
2019-10-10 23:30 3.34 836 18900 (2010) 215 (1957) 1310 349 421 503 534 684 1200 1540 2390 3720
2019-10-10 23:00 3.33 825 18900 (2010) 215 (1957) 1310 349 421 503 534 684 1200 1540 2390 3720
2019-10-10 22:30 3.33 825 18900 (2010) 215 (1957) 1310 349 421 503 534 684 1200 1540 2390 3720
2019-10-10 22:00 3.33 825 18900 (2010) 215 (1957) 1310 349 421 503 534 684 1200 1540 2390 3720
2019-10-10 21:30 3.33 825 18900 (2010) 215 (1957) 1310 349 421 503 534 684 1200 1540 2390 3720
2019-10-10 21:00 3.33 825 18900 (2010) 215 (1957) 1310 349 421 503 534 684 1200 1540 2390 3720
2019-10-10 20:30 3.33 825 18900 (2010) 215 (1957) 1310 349 421 503 534 684 1200 1540 2390 3720
2019-10-10 20:00 3.33 825 18900 (2010) 215 (1957) 1310 349 421 503 534 684 1200 1540 2390 3720
2019-10-10 19:30 3.32 815 18900 (2010) 215 (1957) 1310 349 421 503 534 684 1200 1540 2390 3720
2019-10-10 19:00 3.33 825 18900 (2010) 215 (1957) 1310 349 421 503 534 684 1200 1540 2390 3720
2019-10-10 18:30 3.31 804 18900 (2010) 215 (1957) 1310 349 421 503 534 684 1200 1540 2390 3720
2019-10-10 18:00 3.31 804 18900 (2010) 215 (1957) 1310 349 421 503 534 684 1200 1540 2390 3720
2019-10-10 17:30 3.31 804 18900 (2010) 215 (1957) 1310 349 421 503 534 684 1200 1540 2390 3720
2019-10-10 17:00 3.28 771 18900 (2010) 215 (1957) 1310 349 421 503 534 684 1200 1540 2390 3720
2019-10-10 16:30 3.28 771 18900 (2010) 215 (1957) 1310 349 421 503 534 684 1200 1540 2390 3720
2019-10-10 16:00 3.28 771 18900 (2010) 215 (1957) 1310 349 421 503 534 684 1200 1540 2390 3720
2019-10-10 15:30 3.27 761 18900 (2010) 215 (1957) 1310 349 421 503 534 684 1200 1540 2390 3720
2019-10-10 15:00 3.27 761 18900 (2010) 215 (1957) 1310 349 421 503 534 684 1200 1540 2390 3720
2019-10-10 14:30 3.26 750 18900 (2010) 215 (1957) 1310 349 421 503 534 684 1200 1540 2390 3720
2019-10-10 14:00 3.26 750 18900 (2010) 215 (1957) 1310 349 421 503 534 684 1200 1540 2390 3720
2019-10-10 13:30 3.26 750 18900 (2010) 215 (1957) 1310 349 421 503 534 684 1200 1540 2390 3720
2019-10-10 13:00 3.26 750 18900 (2010) 215 (1957) 1310 349 421 503 534 684 1200 1540 2390 3720
2019-10-10 12:30 3.26 750 18900 (2010) 215 (1957) 1310 349 421 503 534 684 1200 1540 2390 3720
2019-10-10 12:00 3.26 750 18900 (2010) 215 (1957) 1310 349 421 503 534 684 1200 1540 2390 3720
2019-10-10 11:30 3.26 750 18900 (2010) 215 (1957) 1310 349 421 503 534 684 1200 1540 2390 3720
2019-10-10 11:00 3.26 750 18900 (2010) 215 (1957) 1310 349 421 503 534 684 1200 1540 2390 3720
2019-10-10 10:30 3.26 750 18900 (2010) 215 (1957) 1310 349 421 503 534 684 1200 1540 2390 3720
2019-10-10 10:00 3.27 761 18900 (2010) 215 (1957) 1310 349 421 503 534 684 1200 1540 2390 3720
2019-10-10 09:30 3.27 761 18900 (2010) 215 (1957) 1310 349 421 503 534 684 1200 1540 2390 3720
2019-10-10 09:00 3.26 750 18900 (2010) 215 (1957) 1310 349 421 503 534 684 1200 1540 2390 3720
2019-10-10 08:30 3.26 750 18900 (2010) 215 (1957) 1310 349 421 503 534 684 1200 1540 2390 3720
2019-10-10 08:00 3.26 750 18900 (2010) 215 (1957) 1310 349 421 503 534 684 1200 1540 2390 3720
2019-10-10 07:30 3.26 750 18900 (2010) 215 (1957) 1310 349 421 503 534 684 1200 1540 2390 3720
2019-10-10 07:00 3.26 750 18900 (2010) 215 (1957) 1310 349 421 503 534 684 1200 1540 2390 3720
2019-10-10 06:30 3.26 750 18900 (2010) 215 (1957) 1310 349 421 503 534 684 1200 1540 2390 3720
2019-10-10 06:00 3.26 750 18900 (2010) 215 (1957) 1310 349 421 503 534 684 1200 1540 2390 3720
2019-10-10 05:30 3.26 750 18900 (2010) 215 (1957) 1310 349 421 503 534 684 1200 1540 2390 3720
2019-10-10 05:00 3.26 750 18900 (2010) 215 (1957) 1310 349 421 503 534 684 1200 1540 2390 3720
2019-10-10 04:30 3.26 750 18900 (2010) 215 (1957) 1310 349 421 503 534 684 1200 1540 2390 3720
2019-10-10 04:00 3.26 750 18900 (2010) 215 (1957) 1310 349 421 503 534 684 1200 1540 2390 3720
2019-10-10 03:30 3.26 750 18900 (2010) 215 (1957) 1310 349 421 503 534 684 1200 1540 2390 3720
2019-10-10 03:00 3.26 750 18900 (2010) 215 (1957) 1310 349 421 503 534 684 1200 1540 2390 3720
2019-10-10 02:30 3.26 750 18900 (2010) 215 (1957) 1310 349 421 503 534 684 1200 1540 2390 3720
2019-10-10 02:00 3.26 750 18900 (2010) 215 (1957) 1310 349 421 503 534 684 1200 1540 2390 3720
2019-10-10 01:30 3.26 750 18900 (2010) 215 (1957) 1310 349 421 503 534 684 1200 1540 2390 3720
2019-10-10 01:00 3.26 750 18900 (2010) 215 (1957) 1310 349 421 503 534 684 1200 1540 2390 3720
2019-10-10 00:30 3.26 750 18900 (2010) 215 (1957) 1310 349 421 503 534 684 1200 1540 2390 3720
2019-10-10 00:00 3.26 750 18900 (2010) 215 (1957) 1310 349 421 503 534 684 1200 1540 2390 3720
2019-10-09 23:30 3.26 750 20300 (1950) 215 (1957) 1340 349 422 485 520 700 1260 1450 2240 3380
2019-10-09 23:00 3.26 750 20300 (1950) 215 (1957) 1340 349 422 485 520 700 1260 1450 2240 3380
2019-10-09 22:30 3.26 750 20300 (1950) 215 (1957) 1340 349 422 485 520 700 1260 1450 2240 3380
2019-10-09 22:00 3.26 750 20300 (1950) 215 (1957) 1340 349 422 485 520 700 1260 1450 2240 3380
2019-10-09 21:30 3.26 750 20300 (1950) 215 (1957) 1340 349 422 485 520 700 1260 1450 2240 3380
2019-10-09 21:00 3.26 750 20300 (1950) 215 (1957) 1340 349 422 485 520 700 1260 1450 2240 3380
2019-10-09 20:30 3.26 750 20300 (1950) 215 (1957) 1340 349 422 485 520 700 1260 1450 2240 3380
2019-10-09 20:00 3.26 750 20300 (1950) 215 (1957) 1340 349 422 485 520 700 1260 1450 2240 3380
2019-10-09 19:30 3.26 750 20300 (1950) 215 (1957) 1340 349 422 485 520 700 1260 1450 2240 3380
2019-10-09 19:00 3.27 761 20300 (1950) 215 (1957) 1340 349 422 485 520 700 1260 1450 2240 3380
2019-10-09 18:30 3.26 750 20300 (1950) 215 (1957) 1340 349 422 485 520 700 1260 1450 2240 3380
2019-10-09 18:00 3.26 750 20300 (1950) 215 (1957) 1340 349 422 485 520 700 1260 1450 2240 3380
2019-10-09 17:30 3.26 750 20300 (1950) 215 (1957) 1340 349 422 485 520 700 1260 1450 2240 3380
2019-10-09 17:00 3.27 761 20300 (1950) 215 (1957) 1340 349 422 485 520 700 1260 1450 2240 3380
2019-10-09 16:30 3.26 750 20300 (1950) 215 (1957) 1340 349 422 485 520 700 1260 1450 2240 3380
2019-10-09 16:00 3.26 750 20300 (1950) 215 (1957) 1340 349 422 485 520 700 1260 1450 2240 3380
2019-10-09 15:30 3.26 750 20300 (1950) 215 (1957) 1340 349 422 485 520 700 1260 1450 2240 3380
2019-10-09 15:00 3.26 750 20300 (1950) 215 (1957) 1340 349 422 485 520 700 1260 1450 2240 3380
2019-10-09 14:30 3.27 761 20300 (1950) 215 (1957) 1340 349 422 485 520 700 1260 1450 2240 3380
2019-10-09 14:00 3.27 761 20300 (1950) 215 (1957) 1340 349 422 485 520 700 1260 1450 2240 3380
2019-10-09 13:30 3.27 761 20300 (1950) 215 (1957) 1340 349 422 485 520 700 1260 1450 2240 3380
2019-10-09 13:00 3.27 761 20300 (1950) 215 (1957) 1340 349 422 485 520 700 1260 1450 2240 3380
2019-10-09 12:30 3.27 761 20300 (1950) 215 (1957) 1340 349 422 485 520 700 1260 1450 2240 3380
2019-10-09 12:00 3.27 761 20300 (1950) 215 (1957) 1340 349 422 485 520 700 1260 1450 2240 3380
2019-10-09 11:30 3.27 761 20300 (1950) 215 (1957) 1340 349 422 485 520 700 1260 1450 2240 3380
2019-10-09 11:00 3.27 761 20300 (1950) 215 (1957) 1340 349 422 485 520 700 1260 1450 2240 3380
2019-10-09 10:30 3.26 750 20300 (1950) 215 (1957) 1340 349 422 485 520 700 1260 1450 2240 3380
2019-10-09 10:00 3.27 761 20300 (1950) 215 (1957) 1340 349 422 485 520 700 1260 1450 2240 3380
2019-10-09 09:30 3.27 761 20300 (1950) 215 (1957) 1340 349 422 485 520 700 1260 1450 2240 3380
2019-10-09 09:00 3.27 761 20300 (1950) 215 (1957) 1340 349 422 485 520 700 1260 1450 2240 3380
2019-10-09 08:30 3.27 761 20300 (1950) 215 (1957) 1340 349 422 485 520 700 1260 1450 2240 3380
2019-10-09 08:00 3.27 761 20300 (1950) 215 (1957) 1340 349 422 485 520 700 1260 1450 2240 3380
2019-10-09 07:30 3.27 761 20300 (1950) 215 (1957) 1340 349 422 485 520 700 1260 1450 2240 3380
2019-10-09 07:00 3.27 761 20300 (1950) 215 (1957) 1340 349 422 485 520 700 1260 1450 2240 3380
2019-10-09 06:30 3.27 761 20300 (1950) 215 (1957) 1340 349 422 485 520 700 1260 1450 2240 3380
2019-10-09 06:00 3.27 761 20300 (1950) 215 (1957) 1340 349 422 485 520 700 1260 1450 2240 3380
2019-10-09 05:30 3.27 761 20300 (1950) 215 (1957) 1340 349 422 485 520 700 1260 1450 2240 3380
2019-10-09 05:00 3.27 761 20300 (1950) 215 (1957) 1340 349 422 485 520 700 1260 1450 2240 3380
2019-10-09 04:30 3.27 761 20300 (1950) 215 (1957) 1340 349 422 485 520 700 1260 1450 2240 3380
2019-10-09 04:00 3.27 761 20300 (1950) 215 (1957) 1340 349 422 485 520 700 1260 1450 2240 3380
2019-10-09 03:30 3.27 761 20300 (1950) 215 (1957) 1340 349 422 485 520 700 1260 1450 2240 3380
2019-10-09 03:00 3.27 761 20300 (1950) 215 (1957) 1340 349 422 485 520 700 1260 1450 2240 3380
2019-10-09 02:30 3.27 761 20300 (1950) 215 (1957) 1340 349 422 485 520 700 1260 1450 2240 3380
2019-10-09 02:00 3.27 761 20300 (1950) 215 (1957) 1340 349 422 485 520 700 1260 1450 2240 3380
2019-10-09 01:30 3.27 761 20300 (1950) 215 (1957) 1340 349 422 485 520 700 1260 1450 2240 3380
2019-10-09 01:00 3.27 761 20300 (1950) 215 (1957) 1340 349 422 485 520 700 1260 1450 2240 3380
2019-10-09 00:30 3.27 761 20300 (1950) 215 (1957) 1340 349 422 485 520 700 1260 1450 2240 3380
2019-10-09 00:00 3.27 761 20300 (1950) 215 (1957) 1340 349 422 485 520 700 1260 1450 2240 3380
2019-10-08 23:30 3.28 771 19800 (1950) 220 (1957) 1290 346 425 486 520 702 1180 1440 2820 3830
2019-10-08 23:00 3.28 771 19800 (1950) 220 (1957) 1290 346 425 486 520 702 1180 1440 2820 3830
2019-10-08 22:30 3.27 761 19800 (1950) 220 (1957) 1290 346 425 486 520 702 1180 1440 2820 3830
2019-10-08 22:00 3.28 771 19800 (1950) 220 (1957) 1290 346 425 486 520 702 1180 1440 2820 3830
2019-10-08 21:30 3.27 761 19800 (1950) 220 (1957) 1290 346 425 486 520 702 1180 1440 2820 3830
2019-10-08 21:00 3.27 761 19800 (1950) 220 (1957) 1290 346 425 486 520 702 1180 1440 2820 3830
2019-10-08 20:30 3.27 761 19800 (1950) 220 (1957) 1290 346 425 486 520 702 1180 1440 2820 3830
2019-10-08 20:00 3.28 771 19800 (1950) 220 (1957) 1290 346 425 486 520 702 1180 1440 2820 3830
2019-10-08 19:30 3.27 761 19800 (1950) 220 (1957) 1290 346 425 486 520 702 1180 1440 2820 3830
2019-10-08 19:00 3.28 771 19800 (1950) 220 (1957) 1290 346 425 486 520 702 1180 1440 2820 3830
2019-10-08 18:30 3.28 771 19800 (1950) 220 (1957) 1290 346 425 486 520 702 1180 1440 2820 3830
2019-10-08 18:00 3.28 771 19800 (1950) 220 (1957) 1290 346 425 486 520 702 1180 1440 2820 3830
2019-10-08 17:30 3.28 771 19800 (1950) 220 (1957) 1290 346 425 486 520 702 1180 1440 2820 3830
2019-10-08 17:00 3.28 771 19800 (1950) 220 (1957) 1290 346 425 486 520 702 1180 1440 2820 3830
2019-10-08 16:30 3.28 771 19800 (1950) 220 (1957) 1290 346 425 486 520 702 1180 1440 2820 3830
2019-10-08 16:00 3.28 771 19800 (1950) 220 (1957) 1290 346 425 486 520 702 1180 1440 2820 3830
2019-10-08 15:30 3.28 771 19800 (1950) 220 (1957) 1290 346 425 486 520 702 1180 1440 2820 3830
2019-10-08 15:00 3.28 771 19800 (1950) 220 (1957) 1290 346 425 486 520 702 1180 1440 2820 3830
2019-10-08 14:30 3.28 771 19800 (1950) 220 (1957) 1290 346 425 486 520 702 1180 1440 2820 3830
2019-10-08 14:00 3.28 771 19800 (1950) 220 (1957) 1290 346 425 486 520 702 1180 1440 2820 3830
2019-10-08 13:30 3.28 771 19800 (1950) 220 (1957) 1290 346 425 486 520 702 1180 1440 2820 3830
2019-10-08 13:00 3.28 771 19800 (1950) 220 (1957) 1290 346 425 486 520 702 1180 1440 2820 3830
2019-10-08 12:30 3.28 771 19800 (1950) 220 (1957) 1290 346 425 486 520 702 1180 1440 2820 3830
2019-10-08 12:00 3.28 771 19800 (1950) 220 (1957) 1290 346 425 486 520 702 1180 1440 2820 3830
2019-10-08 11:30 3.28 771 19800 (1950) 220 (1957) 1290 346 425 486 520 702 1180 1440 2820 3830
2019-10-08 11:00 3.28 771 19800 (1950) 220 (1957) 1290 346 425 486 520 702 1180 1440 2820 3830
2019-10-08 10:30 3.28 771 19800 (1950) 220 (1957) 1290 346 425 486 520 702 1180 1440 2820 3830
2019-10-08 10:00 3.29 782 19800 (1950) 220 (1957) 1290 346 425 486 520 702 1180 1440 2820 3830
2019-10-08 09:30 3.29 782 19800 (1950) 220 (1957) 1290 346 425 486 520 702 1180 1440 2820 3830
2019-10-08 09:00 3.28 771 19800 (1950) 220 (1957) 1290 346 425 486 520 702 1180 1440 2820 3830
2019-10-08 08:30 3.29 782 19800 (1950) 220 (1957) 1290 346 425 486 520 702 1180 1440 2820 3830
2019-10-08 08:00 3.28 771 19800 (1950) 220 (1957) 1290 346 425 486 520 702 1180 1440 2820 3830
2019-10-08 07:30 3.28 771 19800 (1950) 220 (1957) 1290 346 425 486 520 702 1180 1440 2820 3830
2019-10-08 07:00 3.29 782 19800 (1950) 220 (1957) 1290 346 425 486 520 702 1180 1440 2820 3830
2019-10-08 06:30 3.29 782 19800 (1950) 220 (1957) 1290 346 425 486 520 702 1180 1440 2820 3830
2019-10-08 06:00 3.28 771 19800 (1950) 220 (1957) 1290 346 425 486 520 702 1180 1440 2820 3830
2019-10-08 05:30 3.28 771 19800 (1950) 220 (1957) 1290 346 425 486 520 702 1180 1440 2820 3830
2019-10-08 05:00 3.29 782 19800 (1950) 220 (1957) 1290 346 425 486 520 702 1180 1440 2820 3830
2019-10-08 04:30 3.28 771 19800 (1950) 220 (1957) 1290 346 425 486 520 702 1180 1440 2820 3830
2019-10-08 04:00 3.29 782 19800 (1950) 220 (1957) 1290 346 425 486 520 702 1180 1440 2820 3830
2019-10-08 03:30 3.29 782 19800 (1950) 220 (1957) 1290 346 425 486 520 702 1180 1440 2820 3830
2019-10-08 03:00 3.29 782 19800 (1950) 220 (1957) 1290 346 425 486 520 702 1180 1440 2820 3830
2019-10-08 02:30 3.29 782 19800 (1950) 220 (1957) 1290 346 425 486 520 702 1180 1440 2820 3830
2019-10-08 02:00 3.29 782 19800 (1950) 220 (1957) 1290 346 425 486 520 702 1180 1440 2820 3830
2019-10-08 01:30 3.29 782 19800 (1950) 220 (1957) 1290 346 425 486 520 702 1180 1440 2820 3830
2019-10-08 01:00 3.29 782 19800 (1950) 220 (1957) 1290 346 425 486 520 702 1180 1440 2820 3830
2019-10-08 00:30 3.29 782 19800 (1950) 220 (1957) 1290 346 425 486 520 702 1180 1440 2820 3830
2019-10-08 00:00 3.29 782 19800 (1950) 220 (1957) 1290 346 425 486 520 702 1180 1440 2820 3830
2019-10-07 23:30 3.29 782 23000 (1987) 224 (1957) 1400 346 450 492 514 708 1080 1220 2450 3910
2019-10-07 23:00 3.29 782 23000 (1987) 224 (1957) 1400 346 450 492 514 708 1080 1220 2450 3910
2019-10-07 22:30 3.29 782 23000 (1987) 224 (1957) 1400 346 450 492 514 708 1080 1220 2450 3910
2019-10-07 22:00 3.29 782 23000 (1987) 224 (1957) 1400 346 450 492 514 708 1080 1220 2450 3910
2019-10-07 21:30 3.29 782 23000 (1987) 224 (1957) 1400 346 450 492 514 708 1080 1220 2450 3910
2019-10-07 21:00 3.29 782 23000 (1987) 224 (1957) 1400 346 450 492 514 708 1080 1220 2450 3910
2019-10-07 20:30 3.29 782 23000 (1987) 224 (1957) 1400 346 450 492 514 708 1080 1220 2450 3910
2019-10-07 20:00 3.29 782 23000 (1987) 224 (1957) 1400 346 450 492 514 708 1080 1220 2450 3910
2019-10-07 19:30 3.29 782 23000 (1987) 224 (1957) 1400 346 450 492 514 708 1080 1220 2450 3910
2019-10-07 19:00 3.29 782 23000 (1987) 224 (1957) 1400 346 450 492 514 708 1080 1220 2450 3910
2019-10-07 18:30 3.29 782 23000 (1987) 224 (1957) 1400 346 450 492 514 708 1080 1220 2450 3910
2019-10-07 18:00 3.29 782 23000 (1987) 224 (1957) 1400 346 450 492 514 708 1080 1220 2450 3910
2019-10-07 17:30 3.29 782 23000 (1987) 224 (1957) 1400 346 450 492 514 708 1080 1220 2450 3910
2019-10-07 17:00 3.29 782 23000 (1987) 224 (1957) 1400 346 450 492 514 708 1080 1220 2450 3910
2019-10-07 16:30 3.30 793 23000 (1987) 224 (1957) 1400 346 450 492 514 708 1080 1220 2450 3910
2019-10-07 16:00 3.30 793 23000 (1987) 224 (1957) 1400 346 450 492 514 708 1080 1220 2450 3910
2019-10-07 15:30 3.30 793 23000 (1987) 224 (1957) 1400 346 450 492 514 708 1080 1220 2450 3910
2019-10-07 15:00 3.30 793 23000 (1987) 224 (1957) 1400 346 450 492 514 708 1080 1220 2450 3910
2019-10-07 14:30 3.30 793 23000 (1987) 224 (1957) 1400 346 450 492 514 708 1080 1220 2450 3910
2019-10-07 14:00 3.30 793 23000 (1987) 224 (1957) 1400 346 450 492 514 708 1080 1220 2450 3910
2019-10-07 13:30 3.30 793 23000 (1987) 224 (1957) 1400 346 450 492 514 708 1080 1220 2450 3910
2019-10-07 13:00 3.30 793 23000 (1987) 224 (1957) 1400 346 450 492 514 708 1080 1220 2450 3910
2019-10-07 12:30 3.29 782 23000 (1987) 224 (1957) 1400 346 450 492 514 708 1080 1220 2450 3910
2019-10-07 12:00 3.30 793 23000 (1987) 224 (1957) 1400 346 450 492 514 708 1080 1220 2450 3910
2019-10-07 11:30 3.30 793 23000 (1987) 224 (1957) 1400 346 450 492 514 708 1080 1220 2450 3910
2019-10-07 11:00 3.29 782 23000 (1987) 224 (1957) 1400 346 450 492 514 708 1080 1220 2450 3910
2019-10-07 10:30 3.30 793 23000 (1987) 224 (1957) 1400 346 450 492 514 708 1080 1220 2450 3910
2019-10-07 10:00 3.30 793 23000 (1987) 224 (1957) 1400 346 450 492 514 708 1080 1220 2450 3910
2019-10-07 09:30 3.30 793 23000 (1987) 224 (1957) 1400 346 450 492 514 708 1080 1220 2450 3910
2019-10-07 09:00 3.30 793 23000 (1987) 224 (1957) 1400 346 450 492 514 708 1080 1220 2450 3910
2019-10-07 08:30 3.30 793 23000 (1987) 224 (1957) 1400 346 450 492 514 708 1080 1220 2450 3910
2019-10-07 08:00 3.30 793 23000 (1987) 224 (1957) 1400 346 450 492 514 708 1080 1220 2450 3910
2019-10-07 07:30 3.30 793 23000 (1987) 224 (1957) 1400 346 450 492 514 708 1080 1220 2450 3910
2019-10-07 07:00 3.30 793 23000 (1987) 224 (1957) 1400 346 450 492 514 708 1080 1220 2450 3910
2019-10-07 06:30 3.30 793 23000 (1987) 224 (1957) 1400 346 450 492 514 708 1080 1220 2450 3910
2019-10-07 06:00 3.30 793 23000 (1987) 224 (1957) 1400 346 450 492 514 708 1080 1220 2450 3910
2019-10-07 05:30 3.30 793 23000 (1987) 224 (1957) 1400 346 450 492 514 708 1080 1220 2450 3910
2019-10-07 05:00 3.30 793 23000 (1987) 224 (1957) 1400 346 450 492 514 708 1080 1220 2450 3910
2019-10-07 04:30 3.30 793 23000 (1987) 224 (1957) 1400 346 450 492 514 708 1080 1220 2450 3910
2019-10-07 04:00 3.30 793 23000 (1987) 224 (1957) 1400 346 450 492 514 708 1080 1220 2450 3910
2019-10-07 03:30 3.30 793 23000 (1987) 224 (1957) 1400 346 450 492 514 708 1080 1220 2450 3910
2019-10-07 03:00 3.30 793 23000 (1987) 224 (1957) 1400 346 450 492 514 708 1080 1220 2450 3910
2019-10-07 02:30 3.30 793 23000 (1987) 224 (1957) 1400 346 450 492 514 708 1080 1220 2450 3910
2019-10-07 02:00 3.30 793 23000 (1987) 224 (1957) 1400 346 450 492 514 708 1080 1220 2450 3910
2019-10-07 01:30 3.30 793 23000 (1987) 224 (1957) 1400 346 450 492 514 708 1080 1220 2450 3910
2019-10-07 01:00 3.30 793 23000 (1987) 224 (1957) 1400 346 450 492 514 708 1080 1220 2450 3910
2019-10-07 00:30 3.30 793 23000 (1987) 224 (1957) 1400 346 450 492 514 708 1080 1220 2450 3910
2019-10-07 00:00 3.30 793 23000 (1987) 224 (1957) 1400 346 450 492 514 708 1080 1220 2450 3910

A total of 344 rows are displayed for years 1904 through 2019.

Trips for Meramec River (Missouri), Eureka (07019000)

DateStartEndDistanceConditionDischargeHeightFishingDetails

A total of 0 rows are displayed.

Condition Descriptions

Fishing Conditions

Fish Species

Notes

Classic Trip List

The classic River Trips application is still available for use. It is updated with the new system using a data retrofit. It is no longer maintained. The original River Trips application is no longer updated (as of 1 Dec 2016) but can be checked for errors or for the condition of the data before it was converted to the new system.